Cedonia, Washington
Current Conditions -  °F | °C
As of 2:53 PM on Thursday 27 Nov 2014 (Local Time) from KDEW Reporting Station
Overcast Overcast  
Wind Chill: 53°   Ceiling: 3100
Heat Index: 53°   Visibility: 10mi
Dew Point: 44°   Wind: 12mph
Humidity: 71%   Direction: 170°S
Pressure: 29.79"   Gusts: NA
Location:  48.1571°N, 118.096°W
Report Text: KDEW 272253Z AUTO 17010KT 10SM OVC031 12/07 A2979 RMK AO2 SLP092 T01170067
Loading
Personal Weather Stations






























Interactive Weather Map New forecast layout! Learn more

10-Day Weather Forecast

Advertisements
Track Severe Weather on mobile